PWSweather.com
Personal Weather Stations
Station Observations
GEELONGWX1
Bell Post Hill, GeelongAU

Bell Post HillGeelongAU

Lat: -38.101, Lon: 144.326

Elevation: 204

Station Type: Davis Vantage Pro2

http://www.geelongweather.com

High Low Average
Temperature 88.2°F31.2°C 57.2°F14.0°C 68.0°F20.0°C
Dew Point 64.9°F18.3°C 48.8°F9.3°C 55.9°F13.3°C
Winds 17.7 mph 28.5 kmh Calm Calm 7.0 mph W11.3 kmh W
Wind Gusts 31.0 mph49.9 kmh -- 11.0 mph17.7 kmh
Humidity 86% 32% 67%
Pressure 29.57 in1001.4 mb 29.19 in988.5 mb -
Precipitation 0.20 in5.1 mm - -
Hour Temp Dew Point Humidity Winds Wind Gusts Pressure Precip Precip Rate Daily Precip Total
12:00 AM 71.0°F21.7°C 64.9°F18.3°C 81% Calm Calm -- 29.38 in994.9 mb 0.00 in0.0 mm 0.00 in/hr0.0 mm/hr 0.00 in0.0 mm
12:10 AM 70.8°F21.6°C 64.7°F18.2°C 81% Calm Calm -- 29.38 in994.9 mb 0.00 in0.0 mm 0.00 in/hr0.0 mm/hr 0.00 in0.0 mm
12:20 AM 70.6°F21.4°C 64.1°F17.8°C 80% Calm Calm 1.0 mph1.6 kmh 29.38 in994.9 mb 0.00 in0.0 mm 0.00 in/hr0.0 mm/hr 0.00 in0.0 mm
12:30 AM 70.3°F21.3°C 62.4°F16.9°C 76% Calm Calm -- 29.38 in994.9 mb 0.00 in0.0 mm 0.00 in/hr0.0 mm/hr 0.00 in0.0 mm
12:40 AM 70.1°F21.2°C 62.2°F16.8°C 76% Calm Calm -- 29.37 in994.6 mb 0.00 in0.0 mm 0.00 in/hr0.0 mm/hr 0.00 in0.0 mm
12:50 AM 70.1°F21.2°C 62.6°F17.0°C 77% Calm Calm -- 29.36 in994.2 mb 0.00 in0.0 mm 0.00 in/hr0.0 mm/hr 0.00 in0.0 mm
01:00 AM 70.2°F21.2°C 62.6°F17.0°C 77% Calm Calm -- 29.36 in994.2 mb 0.00 in0.0 mm 0.00 in/hr0.0 mm/hr 0.00 in0.0 mm
01:10 AM 70.1°F21.2°C 62.2°F16.8°C 76% Calm Calm -- 29.36 in994.2 mb 0.00 in0.0 mm 0.00 in/hr0.0 mm/hr 0.00 in0.0 mm
01:20 AM 69.9°F21.1°C 62.4°F16.9°C 77% Calm Calm -- 29.36 in994.2 mb 0.00 in0.0 mm 0.00 in/hr0.0 mm/hr 0.00 in0.0 mm
01:30 AM 69.8°F21.0°C 62.3°F16.8°C 77% Calm Calm -- 29.36 in994.2 mb 0.00 in0.0 mm 0.00 in/hr0.0 mm/hr 0.00 in0.0 mm
01:40 AM 69.7°F20.9°C 62.2°F16.8°C 77% Calm Calm -- 29.36 in994.2 mb 0.00 in0.0 mm 0.00 in/hr0.0 mm/hr 0.00 in0.0 mm
01:50 AM 69.7°F20.9°C 61.8°F16.6°C 76% Calm Calm -- 29.36 in994.2 mb 0.00 in0.0 mm 0.00 in/hr0.0 mm/hr 0.00 in0.0 mm
02:00 AM 69.7°F20.9°C 61.0°F16.1°C 74% 2.3 mph WSW3.7 kmh WSW 4.0 mph6.4 kmh 29.36 in994.2 mb 0.00 in0.0 mm 0.00 in/hr0.0 mm/hr 0.00 in0.0 mm
02:10 AM 69.8°F21.0°C 61.1°F16.2°C 74% 3.1 mph WSW5.0 kmh WSW 5.0 mph8.0 kmh 29.36 in994.2 mb 0.00 in0.0 mm 0.00 in/hr0.0 mm/hr 0.00 in0.0 mm
02:20 AM 69.8°F21.0°C 60.8°F16.0°C 73% Calm Calm -- 29.35 in993.9 mb 0.00 in0.0 mm 0.00 in/hr0.0 mm/hr 0.00 in0.0 mm
02:30 AM 69.9°F21.1°C 60.5°F15.8°C 72% Calm Calm -- 29.35 in993.9 mb 0.00 in0.0 mm 0.00 in/hr0.0 mm/hr 0.00 in0.0 mm
02:40 AM 69.9°F21.1°C 60.0°F15.6°C 71% Calm Calm -- 29.35 in993.9 mb 0.00 in0.0 mm 0.00 in/hr0.0 mm/hr 0.00 in0.0 mm
02:50 AM 69.8°F21.0°C 60.0°F15.6°C 71% Calm Calm -- 29.33 in993.2 mb 0.00 in0.0 mm 0.00 in/hr0.0 mm/hr 0.00 in0.0 mm
03:00 AM 69.8°F21.0°C 60.0°F15.6°C 71% Calm Calm -- 29.33 in993.2 mb 0.00 in0.0 mm 0.00 in/hr0.0 mm/hr 0.00 in0.0 mm
03:10 AM 69.9°F21.1°C 60.0°F15.6°C 71% Calm Calm -- 29.33 in993.2 mb 0.00 in0.0 mm 0.00 in/hr0.0 mm/hr 0.00 in0.0 mm
03:20 AM 69.9°F21.1°C 60.1°F15.6°C 71% Calm Calm -- 29.33 in993.2 mb 0.00 in0.0 mm 0.00 in/hr0.0 mm/hr 0.00 in0.0 mm
03:30 AM 69.9°F21.1°C 59.7°F15.4°C 70% Calm Calm -- 29.33 in993.2 mb 0.00 in0.0 mm 0.00 in/hr0.0 mm/hr 0.00 in0.0 mm
03:40 AM 70.0°F21.1°C 59.7°F15.4°C 70% Calm Calm -- 29.33 in993.2 mb 0.00 in0.0 mm 0.00 in/hr0.0 mm/hr 0.00 in0.0 mm
03:50 AM 70.0°F21.1°C 59.8°F15.4°C 70% Calm Calm -- 29.33 in993.2 mb 0.00 in0.0 mm 0.00 in/hr0.0 mm/hr 0.00 in0.0 mm
04:00 AM 70.0°F21.1°C 59.8°F15.4°C 70% Calm Calm -- 29.33 in993.2 mb 0.00 in0.0 mm 0.00 in/hr0.0 mm/hr 0.00 in0.0 mm
04:10 AM 70.0°F21.1°C 59.8°F15.4°C 70% Calm Calm -- 29.33 in993.2 mb 0.00 in0.0 mm 0.00 in/hr0.0 mm/hr 0.00 in0.0 mm
04:20 AM 70.0°F21.1°C 59.4°F15.2°C 69% Calm Calm -- 29.32 in992.9 mb 0.00 in0.0 mm 0.00 in/hr0.0 mm/hr 0.00 in0.0 mm
04:30 AM 69.9°F21.1°C 59.3°F15.2°C 69% Calm Calm -- 29.32 in992.9 mb 0.00 in0.0 mm 0.00 in/hr0.0 mm/hr 0.00 in0.0 mm
04:40 AM 69.8°F21.0°C 59.6°F15.3°C 70% Calm Calm -- 29.31 in992.6 mb 0.00 in0.0 mm 0.00 in/hr0.0 mm/hr 0.00 in0.0 mm
04:50 AM 69.9°F21.1°C 59.7°F15.4°C 70% Calm Calm -- 29.30 in992.2 mb 0.00 in0.0 mm 0.00 in/hr0.0 mm/hr 0.00 in0.0 mm
05:00 AM 69.9°F21.1°C 60.1°F15.6°C 71% Calm Calm -- 29.30 in992.2 mb 0.00 in0.0 mm 0.00 in/hr0.0 mm/hr 0.00 in0.0 mm
05:10 AM 69.9°F21.1°C 60.0°F15.6°C 71% Calm Calm -- 29.30 in992.2 mb 0.00 in0.0 mm 0.00 in/hr0.0 mm/hr 0.00 in0.0 mm
05:20 AM 69.8°F21.0°C 60.4°F15.8°C 72% Calm Calm -- 29.30 in992.2 mb 0.00 in0.0 mm 0.00 in/hr0.0 mm/hr 0.00 in0.0 mm
05:30 AM 69.7°F20.9°C 60.7°F15.9°C 73% Calm Calm -- 29.30 in992.2 mb 0.00 in0.0 mm 0.00 in/hr0.0 mm/hr 0.00 in0.0 mm
05:40 AM 69.6°F20.9°C 60.6°F15.9°C 73% Calm Calm -- 29.29 in991.9 mb 0.00 in0.0 mm 0.00 in/hr0.0 mm/hr 0.00 in0.0 mm
05:50 AM 69.5°F20.8°C 60.1°F15.6°C 72% Calm Calm -- 29.29 in991.9 mb 0.00 in0.0 mm 0.00 in/hr0.0 mm/hr 0.00 in0.0 mm
06:00 AM 69.6°F20.9°C 59.8°F15.4°C 71% Calm Calm -- 29.29 in991.9 mb 0.00 in0.0 mm 0.00 in/hr0.0 mm/hr 0.00 in0.0 mm
06:10 AM 69.5°F20.8°C 60.1°F15.6°C 72% Calm Calm -- 29.29 in991.9 mb 0.00 in0.0 mm 0.00 in/hr0.0 mm/hr 0.00 in0.0 mm
06:20 AM 69.5°F20.8°C 58.5°F14.7°C 68% Calm Calm -- 29.29 in991.9 mb 0.00 in0.0 mm 0.00 in/hr0.0 mm/hr 0.00 in0.0 mm
06:30 AM 69.9°F21.1°C 58.5°F14.7°C 67% Calm Calm -- 29.29 in991.9 mb 0.00 in0.0 mm 0.00 in/hr0.0 mm/hr 0.00 in0.0 mm
06:40 AM 70.5°F21.4°C 58.1°F14.5°C 65% Calm Calm -- 29.29 in991.9 mb 0.00 in0.0 mm 0.00 in/hr0.0 mm/hr 0.00 in0.0 mm
06:50 AM 70.9°F21.6°C 58.6°F14.8°C 65% Calm Calm -- 29.28 in991.5 mb 0.00 in0.0 mm 0.00 in/hr0.0 mm/hr 0.00 in0.0 mm
07:00 AM 71.3°F21.8°C 57.2°F14.0°C 61% Calm Calm -- 29.28 in991.5 mb 0.00 in0.0 mm 0.00 in/hr0.0 mm/hr 0.00 in0.0 mm
07:10 AM 71.8°F22.1°C 57.2°F14.0°C 60% Calm Calm -- 29.28 in991.5 mb 0.00 in0.0 mm 0.00 in/hr0.0 mm/hr 0.00 in0.0 mm
07:20 AM 72.1°F22.3°C 57.9°F14.4°C 61% Calm Calm -- 29.28 in991.5 mb 0.00 in0.0 mm 0.00 in/hr0.0 mm/hr 0.00 in0.0 mm
07:30 AM 72.2°F22.3°C 57.1°F13.9°C 59% 0.5 mph N0.8 kmh N -- 29.28 in991.5 mb 0.00 in0.0 mm 0.00 in/hr0.0 mm/hr 0.00 in0.0 mm
07:40 AM 72.6°F22.6°C 57.5°F14.2°C 59% 0.2 mph NE0.3 kmh NE 1.0 mph1.6 kmh 29.27 in991.2 mb 0.00 in0.0 mm 0.00 in/hr0.0 mm/hr 0.00 in0.0 mm
07:50 AM 73.6°F23.1°C 56.5°F13.6°C 55% 4.6 mph N7.4 kmh N 7.0 mph11.3 kmh 29.27 in991.2 mb 0.00 in0.0 mm 0.00 in/hr0.0 mm/hr 0.00 in0.0 mm
08:00 AM 75.8°F24.3°C 54.1°F12.3°C 47% 8.1 mph N13.0 kmh N 12.0 mph19.3 kmh 29.27 in991.2 mb 0.00 in0.0 mm 0.00 in/hr0.0 mm/hr 0.00 in0.0 mm
08:10 AM 78.7°F25.9°C 53.6°F12.0°C 42% 9.0 mph N14.5 kmh N 18.0 mph29.0 kmh 29.26 in990.9 mb 0.00 in0.0 mm 0.00 in/hr0.0 mm/hr 0.00 in0.0 mm
11:10 AM 87.7°F30.9°C 54.2°F12.3°C 32% 13.8 mph NW22.2 kmh NW 21.0 mph33.8 kmh 29.20 in988.8 mb 0.00 in0.0 mm 0.00 in/hr0.0 mm/hr 0.00 in0.0 mm
11:20 AM 87.2°F30.7°C 53.8°F12.1°C 32% 15.1 mph NW24.3 kmh NW 27.0 mph43.5 kmh 29.20 in988.8 mb 0.00 in0.0 mm 0.00 in/hr0.0 mm/hr 0.00 in0.0 mm
11:30 AM 87.6°F30.9°C 55.7°F13.2°C 34% 15.1 mph N24.3 kmh N 21.0 mph33.8 kmh 29.20 in988.8 mb 0.00 in0.0 mm 0.00 in/hr0.0 mm/hr 0.00 in0.0 mm
11:40 AM 88.2°F31.2°C 55.5°F13.1°C 33% 15.7 mph N25.3 kmh N 31.0 mph49.9 kmh 29.19 in988.5 mb 0.00 in0.0 mm 0.00 in/hr0.0 mm/hr 0.00 in0.0 mm
11:50 AM 88.0°F31.1°C 55.3°F12.9°C 33% 15.9 mph NW25.6 kmh NW 22.0 mph35.4 kmh 29.19 in988.5 mb 0.00 in0.0 mm 0.00 in/hr0.0 mm/hr 0.00 in0.0 mm
12:00 PM 86.9°F30.5°C 56.0°F13.3°C 35% 13.8 mph N22.2 kmh N 26.0 mph41.8 kmh 29.19 in988.5 mb 0.00 in0.0 mm 0.00 in/hr0.0 mm/hr 0.00 in0.0 mm
12:10 PM 86.4°F30.2°C 55.5°F13.1°C 35% 16.6 mph NNW26.7 kmh NNW 23.0 mph37.0 kmh 29.19 in988.5 mb 0.00 in0.0 mm 0.00 in/hr0.0 mm/hr 0.00 in0.0 mm
12:20 PM 82.2°F27.9°C 57.5°F14.2°C 43% 16.2 mph N26.1 kmh N 20.0 mph32.2 kmh 29.25 in990.5 mb 0.00 in0.0 mm 0.00 in/hr0.0 mm/hr 0.00 in0.0 mm
12:30 PM 73.1°F22.8°C 61.5°F16.4°C 67% 11.4 mph WNW18.3 kmh WNW 20.0 mph32.2 kmh 29.25 in990.5 mb 0.01 in0.3 mm 0.06 in/hr1.5 mm/hr 0.01 in0.3 mm
12:40 PM 68.1°F20.1°C 61.0°F16.1°C 78% 7.8 mph W12.6 kmh W 15.0 mph24.1 kmh 29.27 in991.2 mb 0.03 in0.8 mm 0.18 in/hr4.6 mm/hr 0.04 in1.0 mm
12:50 PM 66.5°F19.2°C 60.9°F16.1°C 82% 7.8 mph NW12.6 kmh NW 12.0 mph19.3 kmh 29.27 in991.2 mb 0.00 in0.0 mm 0.00 in/hr0.0 mm/hr 0.04 in1.0 mm
01:00 PM 66.1°F18.9°C 60.8°F16.0°C 83% 9.5 mph SW15.3 kmh SW 20.0 mph32.2 kmh 29.27 in991.2 mb 0.01 in0.3 mm 0.01 in/hr0.3 mm/hr 0.05 in1.3 mm
01:10 PM 66.6°F19.2°C 60.3°F15.7°C 80% 12.9 mph W20.8 kmh W 17.0 mph27.4 kmh 29.28 in991.5 mb 0.00 in0.0 mm 0.00 in/hr0.0 mm/hr 0.05 in1.3 mm
01:20 PM 67.0°F19.4°C 59.2°F15.1°C 76% 13.8 mph WSW22.2 kmh WSW 22.0 mph35.4 kmh 29.29 in991.9 mb 0.00 in0.0 mm 0.00 in/hr0.0 mm/hr 0.05 in1.3 mm
01:30 PM 66.6°F19.2°C 56.5°F13.6°C 70% 12.5 mph WNW20.1 kmh WNW 22.0 mph35.4 kmh 29.29 in991.9 mb 0.00 in0.0 mm 0.00 in/hr0.0 mm/hr 0.05 in1.3 mm
01:40 PM 65.5°F18.6°C 55.9°F13.3°C 71% 12.6 mph N20.3 kmh N 20.0 mph32.2 kmh 29.29 in991.9 mb 0.00 in0.0 mm 0.00 in/hr0.0 mm/hr 0.05 in1.3 mm
01:50 PM 64.7°F18.2°C 55.5°F13.1°C 72% 11.9 mph WSW19.2 kmh WSW 15.0 mph24.1 kmh 29.29 in991.9 mb 0.00 in0.0 mm 0.00 in/hr0.0 mm/hr 0.05 in1.3 mm
02:00 PM 64.2°F17.9°C 55.4°F13.0°C 73% 10.1 mph WNW16.3 kmh WNW 16.0 mph25.7 kmh 29.29 in991.9 mb 0.00 in0.0 mm 0.00 in/hr0.0 mm/hr 0.05 in1.3 mm
02:10 PM 63.9°F17.7°C 54.3°F12.4°C 71% 10.9 mph WSW17.5 kmh WSW 16.0 mph25.7 kmh 29.29 in991.9 mb 0.00 in0.0 mm 0.00 in/hr0.0 mm/hr 0.05 in1.3 mm
02:20 PM 62.9°F17.2°C 56.3°F13.5°C 79% 7.2 mph NW11.6 kmh NW 17.0 mph27.4 kmh 29.30 in992.2 mb 0.05 in1.3 mm 0.30 in/hr7.6 mm/hr 0.11 in2.8 mm
02:30 PM 61.2°F16.2°C 54.9°F12.7°C 80% 13.3 mph N21.4 kmh N 18.0 mph29.0 kmh 29.30 in992.2 mb 0.03 in0.8 mm 0.18 in/hr4.6 mm/hr 0.14 in3.6 mm
02:40 PM 59.9°F15.5°C 54.4°F12.4°C 82% 13.2 mph WNW21.2 kmh WNW 19.0 mph30.6 kmh 29.30 in992.2 mb 0.02 in0.5 mm 0.12 in/hr3.0 mm/hr 0.15 in3.8 mm
02:50 PM 59.9°F15.5°C 55.7°F13.2°C 86% 6.1 mph N9.8 kmh N 16.0 mph25.7 kmh 29.30 in992.2 mb 0.01 in0.3 mm 0.06 in/hr1.5 mm/hr 0.16 in4.1 mm
03:00 PM 60.8°F16.0°C 55.9°F13.3°C 84% 9.6 mph WNW15.4 kmh WNW 17.0 mph27.4 kmh 29.30 in992.2 mb 0.00 in0.0 mm 0.00 in/hr0.0 mm/hr 0.16 in4.1 mm
03:10 PM 61.7°F16.5°C 55.4°F13.0°C 80% 9.1 mph WSW14.6 kmh WSW 14.0 mph22.5 kmh 29.30 in992.2 mb 0.00 in0.0 mm 0.00 in/hr0.0 mm/hr 0.16 in4.1 mm
03:20 PM 62.2°F16.8°C 54.5°F12.5°C 76% 12.3 mph N19.8 kmh N 17.0 mph27.4 kmh 29.31 in992.6 mb 0.01 in0.3 mm 0.06 in/hr1.5 mm/hr 0.17 in4.3 mm
03:30 PM 62.4°F16.9°C 55.1°F12.8°C 77% 13.1 mph N21.1 kmh N 22.0 mph35.4 kmh 29.31 in992.6 mb 0.00 in0.0 mm 0.00 in/hr0.0 mm/hr 0.17 in4.3 mm
03:40 PM 62.5°F16.9°C 54.1°F12.3°C 74% 9.4 mph W15.1 kmh W 17.0 mph27.4 kmh 29.30 in992.2 mb 0.00 in0.0 mm 0.00 in/hr0.0 mm/hr 0.17 in4.3 mm
03:50 PM 63.4°F17.4°C 55.0°F12.8°C 74% 13.3 mph N21.4 kmh N 23.0 mph37.0 kmh 29.30 in992.2 mb 0.00 in0.0 mm 0.00 in/hr0.0 mm/hr 0.17 in4.3 mm
04:00 PM 64.1°F17.8°C 55.3°F12.9°C 73% 10.7 mph NW17.2 kmh NW 17.0 mph27.4 kmh 29.30 in992.2 mb 0.00 in0.0 mm 0.00 in/hr0.0 mm/hr 0.17 in4.3 mm
04:10 PM 64.9°F18.3°C 54.9°F12.7°C 70% 11.8 mph NW19.0 kmh NW 24.0 mph38.6 kmh 29.30 in992.2 mb 0.00 in0.0 mm 0.00 in/hr0.0 mm/hr 0.17 in4.3 mm
04:20 PM 64.4°F18.0°C 54.8°F12.7°C 71% 8.9 mph WNW14.3 kmh WNW 15.0 mph24.1 kmh 29.30 in992.2 mb 0.00 in0.0 mm 0.00 in/hr0.0 mm/hr 0.17 in4.3 mm
04:30 PM 64.6°F18.1°C 55.0°F12.8°C 71% 10.2 mph WNW16.4 kmh WNW 15.0 mph24.1 kmh 29.30 in992.2 mb 0.00 in0.0 mm 0.00 in/hr0.0 mm/hr 0.17 in4.3 mm
04:40 PM 64.2°F17.9°C 54.6°F12.6°C 71% 8.5 mph N13.7 kmh N 12.0 mph19.3 kmh 29.31 in992.6 mb 0.00 in0.0 mm 0.00 in/hr0.0 mm/hr 0.17 in4.3 mm
04:50 PM 65.7°F18.7°C 55.6°F13.1°C 70% 13.3 mph NW21.4 kmh NW 27.0 mph43.5 kmh 29.30 in992.2 mb 0.01 in0.3 mm 0.06 in/hr1.5 mm/hr 0.19 in4.8 mm
05:00 PM 68.6°F20.3°C 56.0°F13.3°C 64% 12.4 mph WNW20.0 kmh WNW 23.0 mph37.0 kmh 29.30 in992.2 mb 0.00 in0.0 mm 0.00 in/hr0.0 mm/hr 0.19 in4.8 mm
05:10 PM 69.8°F21.0°C 55.7°F13.2°C 61% 15.4 mph W24.8 kmh W 19.0 mph30.6 kmh 29.30 in992.2 mb 0.00 in0.0 mm 0.00 in/hr0.0 mm/hr 0.19 in4.8 mm
05:20 PM 70.3°F21.3°C 56.2°F13.4°C 61% 13.5 mph N21.7 kmh N 17.0 mph27.4 kmh 29.32 in992.9 mb 0.00 in0.0 mm 0.00 in/hr0.0 mm/hr 0.19 in4.8 mm
05:30 PM 70.7°F21.5°C 56.1°F13.4°C 60% 10.7 mph N17.2 kmh N 22.0 mph35.4 kmh 29.32 in992.9 mb 0.00 in0.0 mm 0.00 in/hr0.0 mm/hr 0.19 in4.8 mm
05:40 PM 70.8°F21.6°C 54.3°F12.4°C 56% 14.6 mph WSW23.5 kmh WSW 20.0 mph32.2 kmh 29.32 in992.9 mb 0.00 in0.0 mm 0.00 in/hr0.0 mm/hr 0.19 in4.8 mm
05:50 PM 71.1°F21.7°C 50.4°F10.2°C 48% 14.6 mph SW23.5 kmh SW 19.0 mph30.6 kmh 29.33 in993.2 mb 0.00 in0.0 mm 0.00 in/hr0.0 mm/hr 0.19 in4.8 mm
06:00 PM 70.9°F21.6°C 51.3°F10.7°C 50% 17.7 mph WSW28.5 kmh WSW 26.0 mph41.8 kmh 29.33 in993.2 mb 0.01 in0.3 mm 0.01 in/hr0.3 mm/hr 0.20 in5.1 mm
06:10 PM 69.7°F20.9°C 51.3°F10.7°C 52% 15.6 mph W25.1 kmh W 31.0 mph49.9 kmh 29.35 in993.9 mb 0.00 in0.0 mm 0.00 in/hr0.0 mm/hr 0.20 in5.1 mm
06:20 PM 69.0°F20.6°C 50.6°F10.3°C 52% 10.0 mph WSW16.1 kmh WSW 21.0 mph33.8 kmh 29.36 in994.2 mb 0.00 in0.0 mm 0.00 in/hr0.0 mm/hr 0.20 in5.1 mm
06:30 PM 68.3°F20.2°C 49.5°F9.7°C 51% 12.8 mph W20.6 kmh W 27.0 mph43.5 kmh 29.36 in994.2 mb 0.00 in0.0 mm 0.00 in/hr0.0 mm/hr 0.20 in5.1 mm
06:40 PM 67.8°F19.9°C 50.5°F10.3°C 54% 15.8 mph N25.4 kmh N 28.0 mph45.1 kmh 29.38 in994.9 mb 0.00 in0.0 mm 0.00 in/hr0.0 mm/hr 0.20 in5.1 mm
06:50 PM 67.2°F19.6°C 51.4°F10.8°C 57% 14.5 mph W23.3 kmh W 27.0 mph43.5 kmh 29.39 in995.3 mb 0.00 in0.0 mm 0.00 in/hr0.0 mm/hr 0.20 in5.1 mm
07:00 PM 66.7°F19.3°C 50.5°F10.3°C 56% 12.8 mph W20.6 kmh W 15.0 mph24.1 kmh 29.39 in995.3 mb 0.00 in0.0 mm 0.00 in/hr0.0 mm/hr 0.20 in5.1 mm
07:10 PM 66.1°F18.9°C 49.5°F9.7°C 55% 11.4 mph SW18.3 kmh SW 17.0 mph27.4 kmh 29.40 in995.6 mb 0.00 in0.0 mm 0.00 in/hr0.0 mm/hr 0.20 in5.1 mm
07:20 PM 65.6°F18.7°C 50.0°F10.0°C 57% 9.9 mph W15.9 kmh W 21.0 mph33.8 kmh 29.41 in995.9 mb 0.00 in0.0 mm 0.00 in/hr0.0 mm/hr 0.20 in5.1 mm
07:30 PM 65.2°F18.4°C 50.0°F10.0°C 58% 8.9 mph WSW14.3 kmh WSW 15.0 mph24.1 kmh 29.41 in995.9 mb 0.00 in0.0 mm 0.00 in/hr0.0 mm/hr 0.20 in5.1 mm
07:40 PM 64.6°F18.1°C 49.5°F9.7°C 58% 11.8 mph W19.0 kmh W 17.0 mph27.4 kmh 29.43 in996.6 mb 0.00 in0.0 mm 0.00 in/hr0.0 mm/hr 0.20 in5.1 mm
07:50 PM 64.1°F17.8°C 49.5°F9.7°C 59% 10.4 mph N16.7 kmh N 17.0 mph27.4 kmh 29.44 in997.0 mb 0.00 in0.0 mm 0.00 in/hr0.0 mm/hr 0.20 in5.1 mm
08:00 PM 63.6°F17.6°C 49.9°F9.9°C 61% 9.5 mph W15.3 kmh W 17.0 mph27.4 kmh 29.44 in997.0 mb 0.00 in0.0 mm 0.00 in/hr0.0 mm/hr 0.20 in5.1 mm
08:10 PM 63.4°F17.4°C 48.8°F9.3°C 59% 10.3 mph WSW16.6 kmh WSW 23.0 mph37.0 kmh 29.45 in997.3 mb 0.00 in0.0 mm 0.00 in/hr0.0 mm/hr 0.20 in5.1 mm
08:20 PM 62.9°F17.2°C 48.8°F9.3°C 60% 13.2 mph WNW21.2 kmh WNW 24.0 mph38.6 kmh 29.47 in998.0 mb 0.00 in0.0 mm 0.00 in/hr0.0 mm/hr 0.20 in5.1 mm
08:30 PM 62.4°F16.9°C 48.8°F9.3°C 61% 9.5 mph N15.3 kmh N 17.0 mph27.4 kmh 29.47 in998.0 mb 0.00 in0.0 mm 0.00 in/hr0.0 mm/hr 0.20 in5.1 mm
08:40 PM 62.0°F16.7°C 49.3°F9.6°C 63% 8.8 mph N14.2 kmh N 13.0 mph20.9 kmh 29.48 in998.3 mb 0.00 in0.0 mm 0.00 in/hr0.0 mm/hr 0.20 in5.1 mm
08:50 PM 61.7°F16.5°C 49.4°F9.7°C 64% 7.1 mph WSW11.4 kmh WSW 11.0 mph17.7 kmh 29.50 in999.0 mb 0.00 in0.0 mm 0.00 in/hr0.0 mm/hr 0.20 in5.1 mm
09:00 PM 61.4°F16.3°C 49.6°F9.8°C 65% 6.7 mph WSW10.8 kmh WSW 14.0 mph22.5 kmh 29.50 in999.0 mb 0.00 in0.0 mm 0.00 in/hr0.0 mm/hr 0.20 in5.1 mm
09:10 PM 61.3°F16.3°C 49.4°F9.7°C 65% 7.1 mph WSW11.4 kmh WSW 15.0 mph24.1 kmh 29.51 in999.3 mb 0.00 in0.0 mm 0.00 in/hr0.0 mm/hr 0.20 in5.1 mm
09:20 PM 61.3°F16.3°C 49.4°F9.7°C 65% 9.2 mph SW14.8 kmh SW 15.0 mph24.1 kmh 29.52 in999.7 mb 0.00 in0.0 mm 0.00 in/hr0.0 mm/hr 0.20 in5.1 mm
09:30 PM 61.2°F16.2°C 49.7°F9.8°C 66% 8.8 mph W14.2 kmh W 11.0 mph17.7 kmh 29.52 in999.7 mb 0.00 in0.0 mm 0.00 in/hr0.0 mm/hr 0.20 in5.1 mm
09:40 PM 60.9°F16.1°C 50.3°F10.2°C 68% 7.9 mph N12.7 kmh N 12.0 mph19.3 kmh 29.52 in999.7 mb 0.00 in0.0 mm 0.00 in/hr0.0 mm/hr 0.20 in5.1 mm
09:50 PM 60.5°F15.8°C 50.3°F10.2°C 69% 1.4 mph WSW2.3 kmh WSW 9.0 mph14.5 kmh 29.54 in1000.3 mb 0.00 in0.0 mm 0.00 in/hr0.0 mm/hr 0.20 in5.1 mm
10:00 PM 59.9°F15.5°C 50.5°F10.3°C 71% 5.6 mph W9.0 kmh W 15.0 mph24.1 kmh 29.54 in1000.3 mb 0.00 in0.0 mm 0.00 in/hr0.0 mm/hr 0.20 in5.1 mm
10:10 PM 59.5°F15.3°C 50.5°F10.3°C 72% 6.5 mph WSW10.5 kmh WSW 14.0 mph22.5 kmh 29.54 in1000.3 mb 0.00 in0.0 mm 0.00 in/hr0.0 mm/hr 0.20 in5.1 mm
10:20 PM 59.3°F15.2°C 50.6°F10.3°C 73% 7.7 mph W12.4 kmh W 17.0 mph27.4 kmh 29.54 in1000.3 mb 0.00 in0.0 mm 0.00 in/hr0.0 mm/hr 0.20 in5.1 mm
10:30 PM 59.1°F15.1°C 50.8°F10.4°C 74% 7.9 mph N12.7 kmh N 13.0 mph20.9 kmh 29.54 in1000.3 mb 0.00 in0.0 mm 0.00 in/hr0.0 mm/hr 0.20 in5.1 mm
10:40 PM 58.8°F14.9°C 50.9°F10.5°C 75% 4.2 mph WSW6.8 kmh WSW 11.0 mph17.7 kmh 29.55 in1000.7 mb 0.00 in0.0 mm 0.00 in/hr0.0 mm/hr 0.20 in5.1 mm
10:50 PM 58.6°F14.8°C 51.1°F10.6°C 76% 4.0 mph WSW6.4 kmh WSW 7.0 mph11.3 kmh 29.56 in1001.0 mb 0.00 in0.0 mm 0.00 in/hr0.0 mm/hr 0.20 in5.1 mm
11:00 PM 58.6°F14.8°C 51.1°F10.6°C 76% 1.7 mph WNW2.7 kmh WNW 4.0 mph6.4 kmh 29.56 in1001.0 mb 0.00 in0.0 mm 0.00 in/hr0.0 mm/hr 0.19 in4.8 mm
11:10 PM 58.6°F14.8°C 50.7°F10.4°C 75% 6.1 mph W9.8 kmh W 11.0 mph17.7 kmh 29.56 in1001.0 mb 0.00 in0.0 mm 0.00 in/hr0.0 mm/hr 0.19 in4.8 mm
11:20 PM 58.4°F14.7°C 50.5°F10.3°C 75% 3.0 mph WSW4.8 kmh WSW 7.0 mph11.3 kmh 29.56 in1001.0 mb 0.00 in0.0 mm 0.00 in/hr0.0 mm/hr 0.19 in4.8 mm
11:30 PM 58.0°F14.4°C 50.8°F10.4°C 77% 4.7 mph W7.6 kmh W 11.0 mph17.7 kmh 29.56 in1001.0 mb 0.00 in0.0 mm 0.00 in/hr0.0 mm/hr 0.19 in4.8 mm
11:40 PM 57.6°F14.2°C 50.8°F10.4°C 78% 3.4 mph WSW5.5 kmh WSW 11.0 mph17.7 kmh 29.57 in1001.4 mb 0.00 in0.0 mm 0.00 in/hr0.0 mm/hr 0.19 in4.8 mm
11:50 PM 57.2°F14.0°C 50.4°F10.2°C 78% 4.1 mph N6.6 kmh N 7.0 mph11.3 kmh 29.57 in1001.4 mb 0.00 in0.0 mm 0.00 in/hr0.0 mm/hr 0.19 in4.8 mm